createdAt,value
2023-05-09T00:01:13.008Z,99959.02
2023-05-09T00:03:40.255Z,99954.71
2023-05-09T00:06:07.632Z,99955.04
2023-05-09T00:08:34.438Z,99952.27
2023-05-09T00:11:01.992Z,99955.23
2023-05-09T00:13:28.844Z,99949.90
2023-05-09T00:15:57.254Z,99950.45
2023-05-09T00:18:24.205Z,99948.24
2023-05-09T00:20:50.911Z,99950.16
2023-05-09T00:23:17.989Z,99943.64
2023-05-09T00:25:44.903Z,99947.95
2023-05-09T00:28:11.754Z,99946.20
2023-05-09T00:30:38.494Z,99944.80
2023-05-09T00:33:05.364Z,99942.20
2023-05-09T00:35:32.580Z,99939.83
2023-05-09T00:37:59.730Z,99942.94
2023-05-09T00:40:26.575Z,99939.68
2023-05-09T00:42:53.443Z,99937.83
2023-05-09T00:45:20.262Z,99939.92
2023-05-09T00:47:47.148Z,99937.02
2023-05-09T00:50:14.046Z,99938.08
2023-05-09T00:52:40.784Z,99940.36
2023-05-09T00:55:08.378Z,99941.79
2023-05-09T00:57:36.010Z,99941.98
2023-05-09T01:00:04.608Z,99938.39
2023-05-09T01:02:32.385Z,99938.92
2023-05-09T01:04:59.250Z,99939.80
2023-05-09T01:07:30.017Z,99941.19
2023-05-09T01:10:03.083Z,99939.65
2023-05-09T01:12:33.007Z,99941.58
2023-05-09T01:15:16.713Z,99941.40
2023-05-09T01:17:53.067Z,99943.83
2023-05-09T01:20:24.065Z,99944.01
2023-05-09T01:23:13.132Z,99943.70
2023-05-09T01:25:55.808Z,99943.52
2023-05-09T01:28:40.876Z,99943.17
2023-05-09T01:31:08.165Z,99943.34
2023-05-09T01:33:36.803Z,99943.34
2023-05-09T01:36:05.390Z,99942.83
2023-05-09T01:38:32.132Z,99943.87
2023-05-09T01:40:59.895Z,99944.90
2023-05-09T01:43:27.997Z,99947.66
2023-05-09T01:45:55.248Z,99943.90
2023-05-09T01:48:22.278Z,99946.45
2023-05-09T01:50:49.352Z,99945.24
2023-05-09T01:53:16.771Z,99941.62
2023-05-09T01:55:44.144Z,99941.75
2023-05-09T01:58:12.728Z,99940.20
2023-05-09T02:00:39.533Z,99941.23
2023-05-09T02:03:06.354Z,99939.80
2023-05-09T02:05:33.287Z,99940.14
2023-05-09T02:08:01.344Z,99935.09
2023-05-09T02:10:28.386Z,99936.98
2023-05-09T02:12:55.260Z,99935.74
2023-05-09T02:15:22.588Z,99932.94
2023-05-09T02:17:50.689Z,99929.63
2023-05-09T02:20:17.600Z,99930.26
2023-05-09T02:22:44.444Z,99926.55
2023-05-09T02:25:14.327Z,99925.45
2023-05-09T02:27:41.526Z,99921.42
2023-05-09T02:30:10.087Z,99923.77
2023-05-09T02:32:37.383Z,99923.16
2023-05-09T02:35:04.738Z,99917.73
2023-05-09T02:37:31.657Z,99914.16
2023-05-09T02:39:58.442Z,99914.63
2023-05-09T02:42:26.377Z,99915.79
2023-05-09T02:44:53.837Z,99911.60
2023-05-09T02:47:20.987Z,99919.50
2023-05-09T02:49:48.042Z,99918.77
2023-05-09T02:52:15.404Z,99923.23
2023-05-09T02:54:42.135Z,99917.85
2023-05-09T02:57:09.170Z,99916.46
2023-05-09T02:59:36.017Z,99917.45
2023-05-09T03:02:03.272Z,99920.33
2023-05-09T03:04:30.657Z,99919.77
2023-05-09T03:06:57.576Z,99923.39
2023-05-09T03:09:26.728Z,99920.14
2023-05-09T03:11:55.265Z,99919.13
2023-05-09T03:14:22.059Z,99923.84
2023-05-09T03:16:48.909Z,99926.12
2023-05-09T03:19:22.845Z,99928.58
2023-05-09T03:21:49.613Z,99933.66
2023-05-09T03:24:16.862Z,99935.77
2023-05-09T03:26:43.731Z,99939.23
2023-05-09T03:29:10.892Z,99939.08
2023-05-09T03:31:38.236Z,99938.77
2023-05-09T03:34:05.946Z,99941.35
2023-05-09T03:36:33.138Z,99936.80
2023-05-09T03:39:00.049Z,99941.59
2023-05-09T03:41:27.187Z,99938.59
2023-05-09T03:43:54.351Z,99940.24
2023-05-09T03:46:21.196Z,99943.09
2023-05-09T03:48:48.357Z,99952.49
2023-05-09T03:51:15.922Z,99950.71
2023-05-09T03:53:45.689Z,99948.90
2023-05-09T03:56:12.695Z,99954.51
2023-05-09T03:58:45.393Z,99955.69
2023-05-09T04:01:13.176Z,99958.79
2023-05-09T04:03:40.717Z,99960.73
2023-05-09T04:06:11.533Z,99952.56
2023-05-09T04:08:40.806Z,99956.98
2023-05-09T04:11:07.660Z,99954.91
2023-05-09T04:13:35.135Z,99956.27
2023-05-09T04:16:05.637Z,99957.41
2023-05-09T04:18:32.783Z,99963.40
2023-05-09T04:21:00.795Z,99966.83
2023-05-09T04:23:27.760Z,99965.59
2023-05-09T04:25:57.208Z,99959.67
2023-05-09T04:28:25.280Z,99961.88
2023-05-09T04:30:52.310Z,99963.39
2023-05-09T04:33:19.559Z,99963.33
2023-05-09T04:35:46.618Z,99964.40
2023-05-09T04:38:13.896Z,99960.81
2023-05-09T04:40:41.038Z,99963.08
2023-05-09T04:43:08.078Z,99962.64
2023-05-09T04:45:35.554Z,99958.98
2023-05-09T04:48:02.451Z,99961.61
2023-05-09T04:50:29.669Z,99963.77
2023-05-09T04:52:56.412Z,99961.23
2023-05-09T04:55:23.446Z,99967.34
2023-05-09T04:57:50.732Z,99967.88
2023-05-09T05:00:18.617Z,99970.85
2023-05-09T05:02:47.245Z,99967.42
2023-05-09T05:05:14.301Z,99969.02
2023-05-09T05:07:42.956Z,99966.25
2023-05-09T05:10:11.340Z,99969.04
2023-05-09T05:12:38.785Z,99969.40
2023-05-09T05:15:08.520Z,99971.48
2023-05-09T05:17:35.633Z,99968.38
2023-05-09T05:20:06.425Z,99969.08
2023-05-09T05:22:33.366Z,99967.86
2023-05-09T05:25:00.211Z,99965.60
2023-05-09T05:27:27.438Z,99969.59
2023-05-09T05:29:54.287Z,99968.74
2023-05-09T05:32:21.031Z,99969.43
2023-05-09T05:34:48.170Z,99967.52
2023-05-09T05:37:15.217Z,99968.04
2023-05-09T05:39:42.375Z,99970.82
2023-05-09T05:44:20.496Z,99977.44
2023-05-09T05:46:47.670Z,99982.11
2023-05-09T05:49:14.718Z,99987.15
2023-05-09T05:51:41.526Z,99988.04
2023-05-09T05:54:08.561Z,99992.38
2023-05-09T05:56:35.529Z,99991.16
2023-05-09T05:59:02.284Z,99989.79
2023-05-09T06:01:29.028Z,99987.52
2023-05-09T06:03:57.901Z,99982.81
2023-05-09T06:06:29.279Z,99979.85
2023-05-09T06:08:56.424Z,99981.38
2023-05-09T06:11:23.393Z,99984.33
2023-05-09T06:13:50.103Z,99988.65
2023-05-09T06:16:20.080Z,99986.40
2023-05-09T06:18:49.359Z,99992.46
2023-05-09T06:21:16.091Z,99986.55
2023-05-09T06:23:57.754Z,99986.21
2023-05-09T06:26:28.810Z,99978.73
2023-05-09T06:28:56.147Z,99977.51
2023-05-09T06:31:24.899Z,99977.66
2023-05-09T06:33:52.940Z,99982.48
2023-05-09T06:36:20.725Z,99982.42
2023-05-09T06:38:47.598Z,99984.45
2023-05-09T06:41:14.316Z,99981.98
2023-05-09T06:43:41.391Z,99980.02
2023-05-09T06:46:08.322Z,99983.29
2023-05-09T06:48:35.183Z,99981.84
2023-05-09T06:51:02.304Z,99987.73
2023-05-09T06:53:29.045Z,99990.33
2023-05-09T06:55:55.799Z,99985.43
2023-05-09T06:58:23.356Z,99987.66
2023-05-09T07:00:50.197Z,99983.62
2023-05-09T07:03:17.108Z,99986.35
2023-05-09T07:05:44.184Z,99986.16
2023-05-09T07:08:10.985Z,99986.14
2023-05-09T07:10:39.027Z,99982.44
2023-05-09T07:13:06.334Z,99981.83
2023-05-09T07:15:41.213Z,99980.20
2023-05-09T07:18:09.333Z,99979.55
2023-05-09T07:20:36.389Z,99978.29
2023-05-09T07:23:04.192Z,99977.87
2023-05-09T07:25:31.083Z,99973.77
2023-05-09T07:27:58.540Z,99967.76
2023-05-09T07:30:25.457Z,99965.94
2023-05-09T07:32:52.362Z,99965.36
2023-05-09T07:35:20.073Z,99963.98
2023-05-09T07:37:46.904Z,99958.63
2023-05-09T07:40:14.542Z,99959.50
2023-05-09T07:42:45.109Z,99961.81
2023-05-09T07:45:11.964Z,99962.41
2023-05-09T07:47:38.957Z,99960.91
2023-05-09T07:50:09.008Z,99964.25
2023-05-09T07:52:36.338Z,99959.18
2023-05-09T07:55:05.007Z,99956.73
2023-05-09T07:57:36.400Z,99956.84
2023-05-09T08:00:10.555Z,99950.70
2023-05-09T08:02:45.960Z,99943.46
2023-05-09T08:05:13.942Z,99945.98
2023-05-09T08:07:40.950Z,99939.77
2023-05-09T08:10:11.614Z,99940.67
2023-05-09T08:12:38.724Z,99938.04
2023-05-09T08:15:06.255Z,99930.52
2023-05-09T08:17:33.076Z,99930.17
2023-05-09T08:19:59.938Z,99927.08
2023-05-09T08:22:26.667Z,99926.56
2023-05-09T08:24:53.608Z,99927.02
2023-05-09T08:27:20.335Z,99926.17
2023-05-09T08:29:47.081Z,99923.38
2023-05-09T08:32:14.293Z,99921.81
2023-05-09T08:34:41.241Z,99920.60
2023-05-09T08:37:08.516Z,99918.52
2023-05-09T08:39:35.267Z,99918.52
2023-05-09T08:42:02.525Z,99918.05
2023-05-09T08:44:29.927Z,99912.70
2023-05-09T08:46:59.625Z,99913.48
2023-05-09T08:49:26.733Z,99914.77
2023-05-09T08:51:53.780Z,99910.64
2023-05-09T08:54:22.874Z,99914.54
2023-05-09T08:56:50.377Z,99912.98
2023-05-09T08:59:17.896Z,99913.79
2023-05-09T09:01:44.756Z,99911.45
2023-05-09T09:04:14.690Z,99911.45
2023-05-09T09:06:41.716Z,99904.13
2023-05-09T09:09:09.129Z,99903.46
2023-05-09T09:11:36.474Z,99898.91
2023-05-09T09:14:16.637Z,99896.27
2023-05-09T09:16:44.591Z,99894.67
2023-05-09T09:19:17.215Z,99895.41
2023-05-09T09:21:45.550Z,99892.94
2023-05-09T09:24:13.047Z,99888.64
2023-05-09T09:26:47.956Z,99887.27
2023-05-09T09:29:15.063Z,99887.50
2023-05-09T09:31:47.061Z,99885.87
2023-05-09T09:34:21.497Z,99889.77
2023-05-09T09:36:48.642Z,99890.80
2023-05-09T09:39:15.684Z,99893.70
2023-05-09T09:41:43.858Z,99893.84
2023-05-09T09:44:17.452Z,99895.75
2023-05-09T09:46:48.552Z,99899.01
2023-05-09T09:49:16.929Z,99892.95
2023-05-09T09:51:44.493Z,99891.30
2023-05-09T09:54:12.354Z,99890.77
2023-05-09T09:56:43.862Z,99893.06
2023-05-09T09:59:15.934Z,99893.30
2023-05-09T10:02:07.052Z,99896.83
2023-05-09T10:04:35.729Z,99898.04
2023-05-09T10:07:05.091Z,99889.15
2023-05-09T10:09:33.005Z,99888.67
2023-05-09T10:12:04.379Z,99886.02
2023-05-09T10:14:33.587Z,99884.65
2023-05-09T10:17:03.304Z,99881.19
2023-05-09T10:19:30.246Z,99874.11
2023-05-09T10:21:58.537Z,99878.57
2023-05-09T10:24:39.350Z,99873.50
2023-05-09T10:27:12.971Z,99873.14
2023-05-09T10:29:49.501Z,99867.84
2023-05-09T10:32:20.577Z,99864.58
2023-05-09T10:34:49.235Z,99859.80
2023-05-09T10:37:16.171Z,99864.47
2023-05-09T10:39:44.441Z,99864.64
2023-05-09T10:42:11.218Z,99861.84
2023-05-09T10:44:38.335Z,99855.05
2023-05-09T10:47:05.266Z,99855.41
2023-05-09T10:49:32.510Z,99856.48
2023-05-09T10:52:00.934Z,99853.77
2023-05-09T10:54:30.707Z,99856.36
2023-05-09T10:56:58.042Z,99857.21
2023-05-09T10:59:41.257Z,99857.61
2023-05-09T11:02:12.904Z,99852.69
2023-05-09T11:04:39.764Z,99855.97
2023-05-09T11:07:26.796Z,99851.42
2023-05-09T11:10:07.174Z,99848.80
2023-05-09T11:12:33.928Z,99845.22
2023-05-09T11:15:08.085Z,99841.98
2023-05-09T11:17:38.330Z,99840.27
2023-05-09T11:20:06.561Z,99836.20
2023-05-09T11:22:44.354Z,99831.02
2023-05-09T11:25:13.210Z,99828.85
2023-05-09T11:27:42.382Z,99824.64
2023-05-09T11:30:11.145Z,99824.67
2023-05-09T11:32:55.619Z,99823.34
2023-05-09T11:35:23.531Z,99818.89
2023-05-09T11:38:04.502Z,99817.34
2023-05-09T11:40:34.784Z,99818.03
2023-05-09T11:43:02.015Z,99817.39
2023-05-09T11:45:32.542Z,99816.58
2023-05-09T11:48:00.526Z,99814.52
2023-05-09T11:50:27.405Z,99805.73
2023-05-09T11:52:55.072Z,99805.52
2023-05-09T11:55:22.887Z,99803.13
2023-05-09T11:57:51.728Z,99794.17
2023-05-09T12:00:25.776Z,99797.14
2023-05-09T12:02:53.114Z,99792.73
2023-05-09T12:05:21.432Z,99791.73
2023-05-09T12:07:48.464Z,99793.61
2023-05-09T12:10:16.627Z,99792.13
2023-05-09T12:12:45.429Z,99786.77
2023-05-09T12:15:13.969Z,99783.92
2023-05-09T12:17:42.866Z,99783.54
2023-05-09T12:20:09.979Z,99778.92
2023-05-09T12:22:39.631Z,99777.11
2023-05-09T12:25:08.388Z,99770.29
2023-05-09T12:27:35.644Z,99767.58
2023-05-09T12:30:03.926Z,99770.95
2023-05-09T12:32:33.044Z,99758.86
2023-05-09T12:35:00.302Z,99757.42
2023-05-09T12:37:27.216Z,99748.96
2023-05-09T12:40:05.001Z,99749.67
2023-05-09T12:42:32.700Z,99745.45
2023-05-09T12:44:59.654Z,99744.68
2023-05-09T12:47:28.878Z,99741.55
2023-05-09T12:49:59.573Z,99737.70
2023-05-09T12:52:34.552Z,99737.63
2023-05-09T12:55:09.103Z,99735.08
2023-05-09T12:57:36.134Z,99738.65
2023-05-09T13:00:04.750Z,99734.05
2023-05-09T13:02:40.000Z,99734.02
2023-05-09T13:05:11.216Z,99732.23
2023-05-09T13:07:49.710Z,99731.84
2023-05-09T13:10:23.680Z,99726.16
2023-05-09T13:12:51.542Z,99718.95
2023-05-09T13:15:20.584Z,99711.94
2023-05-09T13:17:48.196Z,99710.23
2023-05-09T13:20:15.347Z,99706.77
2023-05-09T13:22:43.948Z,99701.53
2023-05-09T13:25:11.303Z,99702.60
2023-05-09T13:27:38.138Z,99704.86
2023-05-09T13:30:07.763Z,99702.67
2023-05-09T13:32:35.067Z,99700.05
2023-05-09T13:35:02.256Z,99693.22
2023-05-09T13:37:29.278Z,99693.05
2023-05-09T13:39:56.008Z,99691.42
2023-05-09T13:42:22.755Z,99685.98
2023-05-09T13:44:49.482Z,99680.01
2023-05-09T13:47:16.237Z,99681.35
2023-05-09T13:49:42.965Z,99675.23
2023-05-09T13:52:09.924Z,99674.65
2023-05-09T13:54:37.079Z,99674.89
2023-05-09T13:57:04.638Z,99674.14
2023-05-09T13:59:31.993Z,99669.70
2023-05-09T14:02:00.121Z,99666.70
2023-05-09T14:04:27.840Z,99667.88
2023-05-09T14:06:55.201Z,99668.42
2023-05-09T14:09:22.653Z,99671.60
2023-05-09T14:11:51.739Z,99667.70
2023-05-09T14:14:22.381Z,99666.41
2023-05-09T14:16:49.444Z,99663.85
2023-05-09T14:19:16.490Z,99663.64
2023-05-09T14:21:43.848Z,99664.19
2023-05-09T14:24:14.264Z,99665.10
2023-05-09T14:26:42.807Z,99658.33
2023-05-09T14:29:09.712Z,99654.23
2023-05-09T14:31:36.994Z,99655.27
2023-05-09T14:34:05.282Z,99654.35
2023-05-09T14:36:35.065Z,99649.36
2023-05-09T14:39:02.455Z,99649.06
2023-05-09T14:41:29.190Z,99642.59
2023-05-09T14:43:56.238Z,99642.05
2023-05-09T14:46:26.477Z,99639.95
2023-05-09T14:48:53.969Z,99639.17
2023-05-09T14:51:21.921Z,99640.57
2023-05-09T14:53:49.716Z,99641.48
2023-05-09T14:56:18.226Z,99638.17
2023-05-09T14:58:45.183Z,99641.14
2023-05-09T15:01:11.972Z,99639.06
2023-05-09T15:03:39.654Z,99634.68
2023-05-09T15:06:07.027Z,99636.69
2023-05-09T15:08:35.569Z,99635.74
2023-05-09T15:11:02.480Z,99643.90
2023-05-09T15:13:29.447Z,99640.48
2023-05-09T15:15:57.198Z,99639.38
2023-05-09T15:18:28.618Z,99637.70
2023-05-09T15:20:56.021Z,99631.27
2023-05-09T15:23:23.120Z,99630.08
2023-05-09T15:25:50.011Z,99624.77
2023-05-09T15:28:16.775Z,99625.91
2023-05-09T15:30:45.380Z,99616.09
2023-05-09T15:33:13.309Z,99616.23
2023-05-09T15:35:40.273Z,99612.52
2023-05-09T15:38:07.915Z,99609.55
2023-05-09T15:40:34.773Z,99603.05
2023-05-09T15:43:07.984Z,99607.45
2023-05-09T15:45:38.816Z,99604.85
2023-05-09T15:48:05.838Z,99610.41
2023-05-09T15:50:32.904Z,99608.50
2023-05-09T15:52:59.729Z,99610.34
2023-05-09T15:55:28.608Z,99612.14
2023-05-09T15:57:55.601Z,99610.63
2023-05-09T16:00:22.785Z,99608.04
2023-05-09T16:02:50.304Z,99604.94
2023-05-09T16:05:17.641Z,99606.38
2023-05-09T16:07:46.027Z,99606.62
2023-05-09T16:10:13.639Z,99611.55
2023-05-09T16:12:40.705Z,99606.88
2023-05-09T16:15:08.496Z,99603.80
2023-05-09T16:17:35.342Z,99601.36
2023-05-09T16:20:02.363Z,99602.56
2023-05-09T16:22:29.242Z,99601.51
2023-05-09T16:24:56.349Z,99597.98
2023-05-09T16:27:23.074Z,99601.89
2023-05-09T16:29:50.132Z,99596.03
2023-05-09T16:32:17.172Z,99594.68
2023-05-09T16:34:43.918Z,99596.44
2023-05-09T16:37:10.703Z,99596.46
2023-05-09T16:39:37.614Z,99594.08
2023-05-09T16:42:05.508Z,99598.69
2023-05-09T16:44:32.373Z,99592.10
2023-05-09T16:46:59.190Z,99588.60
2023-05-09T16:49:26.246Z,99587.98
2023-05-09T16:51:53.088Z,99587.69
2023-05-09T16:54:20.023Z,99589.32
2023-05-09T16:56:46.875Z,99585.54
2023-05-09T16:59:13.635Z,99585.40
2023-05-09T17:01:41.966Z,99582.13
2023-05-09T17:04:08.847Z,99582.85
2023-05-09T17:06:35.675Z,99581.66
2023-05-09T17:09:02.449Z,99581.90
2023-05-09T17:11:29.168Z,99579.18
2023-05-09T17:13:56.016Z,99577.88
2023-05-09T17:16:22.964Z,99579.01
2023-05-09T17:18:49.713Z,99579.98
2023-05-09T17:21:16.977Z,99577.65
2023-05-09T17:23:44.103Z,99579.85
2023-05-09T17:26:10.912Z,99581.16
2023-05-09T17:28:37.768Z,99581.08
2023-05-09T17:31:04.572Z,99582.08
2023-05-09T17:33:31.495Z,99581.86
2023-05-09T17:36:00.173Z,99587.58
2023-05-09T17:38:27.063Z,99585.45
2023-05-09T17:40:53.835Z,99586.98
2023-05-09T17:43:21.874Z,99585.55
2023-05-09T17:45:48.729Z,99585.33
2023-05-09T17:48:16.057Z,99579.20
2023-05-09T17:50:43.875Z,99581.55
2023-05-09T17:53:10.687Z,99579.39
2023-05-09T17:55:37.525Z,99582.62
2023-05-09T17:58:04.272Z,99582.88
2023-05-09T18:02:02.123Z,99580.91
2023-05-09T18:04:31.081Z,99587.08
2023-05-09T18:06:57.822Z,99586.64
2023-05-09T18:09:24.660Z,99584.63
2023-05-09T18:11:51.433Z,99592.69
2023-05-09T18:14:18.552Z,99601.09
2023-05-09T18:16:45.525Z,99598.73
2023-05-09T18:19:12.883Z,99600.69
2023-05-09T18:21:39.606Z,99600.91
2023-05-09T18:24:09.127Z,99602.69
2023-05-09T18:26:36.074Z,99603.58
2023-05-09T18:29:03.100Z,99608.80
2023-05-09T18:31:31.492Z,99607.95
2023-05-09T18:33:58.549Z,99608.98
2023-05-09T18:36:29.925Z,99609.69
2023-05-09T18:38:56.650Z,99607.78
2023-05-09T18:41:24.837Z,99605.36
2023-05-09T18:43:51.788Z,99604.84
2023-05-09T18:46:21.089Z,99602.91
2023-05-09T18:48:52.461Z,99607.40
2023-05-09T18:51:19.900Z,99609.30
2023-05-09T18:53:47.508Z,99613.94
2023-05-09T18:56:14.480Z,99616.17
2023-05-09T18:58:41.506Z,99612.01
2023-05-09T19:01:11.490Z,99614.06
2023-05-09T19:03:45.788Z,99621.46
2023-05-09T19:06:13.690Z,99621.45
2023-05-09T19:08:41.668Z,99619.52
2023-05-09T19:11:08.651Z,99624.33
2023-05-09T19:13:38.410Z,99624.30
2023-05-09T19:16:05.755Z,99621.88
2023-05-09T19:18:33.055Z,99618.23
2023-05-09T19:20:59.945Z,99615.94
2023-05-09T19:23:27.079Z,99616.42
2023-05-09T19:25:53.934Z,99615.18
2023-05-09T19:28:22.423Z,99612.90
2023-05-09T19:30:50.011Z,99609.23
2023-05-09T19:33:17.036Z,99612.48
2023-05-09T19:35:44.599Z,99617.45
2023-05-09T19:38:12.192Z,99616.03
2023-05-09T19:40:39.728Z,99613.93
2023-05-09T19:43:06.663Z,99614.61
2023-05-09T19:45:33.931Z,99614.75
2023-05-09T19:48:00.783Z,99612.80
2023-05-09T19:50:27.629Z,99616.73
2023-05-09T19:52:54.469Z,99618.74
2023-05-09T19:55:21.514Z,99622.14
2023-05-09T19:57:48.409Z,99620.73
2023-05-09T20:00:16.136Z,99627.08
2023-05-09T20:02:43.220Z,99623.91
2023-05-09T20:05:10.165Z,99624.90
2023-05-09T20:07:36.934Z,99621.27
2023-05-09T20:10:03.984Z,99621.76
2023-05-09T20:12:30.750Z,99616.39
2023-05-09T20:14:57.515Z,99617.40
2023-05-09T20:17:24.293Z,99612.17
2023-05-09T20:19:51.413Z,99607.29
2023-05-09T20:22:18.174Z,99615.00
2023-05-09T20:24:45.026Z,99611.15
2023-05-09T20:27:12.992Z,99606.91
2023-05-09T20:29:39.937Z,99614.92
2023-05-09T20:32:06.764Z,99614.69
2023-05-09T20:34:33.631Z,99616.50
2023-05-09T20:37:01.016Z,99616.44
2023-05-09T20:39:27.729Z,99615.86
2023-05-09T20:41:55.836Z,99616.35
2023-05-09T20:44:22.642Z,99615.78
2023-05-09T20:46:49.490Z,99615.75
2023-05-09T20:49:16.432Z,99613.12
2023-05-09T20:51:43.284Z,99615.12
2023-05-09T20:54:10.140Z,99615.75
2023-05-09T20:56:36.977Z,99613.63
2023-05-09T20:59:05.371Z,99611.17
2023-05-09T21:01:35.548Z,99611.14
2023-05-09T21:04:05.549Z,99611.46
2023-05-09T21:06:33.136Z,99617.79
2023-05-09T21:08:59.923Z,99622.36
2023-05-09T21:11:26.674Z,99626.11
2023-05-09T21:13:53.604Z,99625.04
2023-05-09T21:16:20.378Z,99623.61
2023-05-09T21:18:47.131Z,99623.21
2023-05-09T21:21:13.930Z,99618.48
2023-05-09T21:23:40.688Z,99625.34
2023-05-09T21:26:07.523Z,99621.67
2023-05-09T21:28:34.361Z,99624.41
2023-05-09T21:31:01.684Z,99625.74
2023-05-09T21:33:29.085Z,99624.28
2023-05-09T21:35:56.142Z,99623.99
2023-05-09T21:38:22.980Z,99620.45
2023-05-09T21:40:51.252Z,99617.11
2023-05-09T21:43:18.336Z,99613.45
2023-05-09T21:45:45.717Z,99611.64
2023-05-09T21:48:12.554Z,99612.70
2023-05-09T21:50:39.486Z,99611.69
2023-05-09T21:53:06.338Z,99612.92
2023-05-09T21:55:33.276Z,99609.52
2023-05-09T21:58:00.149Z,99609.77
2023-05-09T22:00:26.867Z,99611.07
2023-05-09T22:02:53.679Z,99613.41
2023-05-09T22:05:20.655Z,99612.83
2023-05-09T22:07:47.409Z,99613.46
2023-05-09T22:10:14.354Z,99611.54
2023-05-09T22:12:41.306Z,99611.34
2023-05-09T22:15:08.858Z,99611.11
2023-05-09T22:17:35.918Z,99612.48
2023-05-09T22:20:02.854Z,99617.80
2023-05-09T22:22:29.882Z,99613.17
2023-05-09T22:24:56.830Z,99610.40
2023-05-09T22:27:23.680Z,99609.02
2023-05-09T22:29:50.521Z,99608.98
2023-05-09T22:32:17.362Z,99608.98
2023-05-09T22:34:47.387Z,99606.73
2023-05-09T22:37:14.560Z,99612.75
2023-05-09T22:39:43.552Z,99609.80
2023-05-09T22:42:11.377Z,99607.86
2023-05-09T22:44:39.182Z,99603.17
2023-05-09T22:47:08.114Z,99603.16
2023-05-09T22:49:35.630Z,99598.64
2023-05-09T22:52:02.690Z,99600.15
2023-05-09T22:54:29.532Z,99598.20
2023-05-09T22:59:57.094Z,99593.55
2023-05-09T23:02:24.099Z,99590.38
2023-05-09T23:04:51.056Z,99596.20
2023-05-09T23:07:18.014Z,99592.75
2023-05-09T23:09:45.229Z,99595.80
2023-05-09T23:12:12.092Z,99594.40
2023-05-09T23:14:38.847Z,99595.40
2023-05-09T23:17:05.660Z,99596.20
2023-05-09T23:19:32.915Z,99595.60
2023-05-09T23:21:59.754Z,99598.92
2023-05-09T23:24:26.601Z,99598.46
2023-05-09T23:26:53.862Z,99593.92
2023-05-09T23:29:20.901Z,99595.33
2023-05-09T23:31:48.232Z,99593.45
2023-05-09T23:34:15.245Z,99588.25
2023-05-09T23:36:42.040Z,99589.38
2023-05-09T23:39:09.531Z,99588.52
2023-05-09T23:41:36.436Z,99586.48
2023-05-09T23:44:03.502Z,99588.26
2023-05-09T23:46:30.674Z,99589.87
2023-05-09T23:48:57.687Z,99586.73
2023-05-09T23:51:24.519Z,99586.34
2023-05-09T23:53:51.671Z,99584.96
2023-05-09T23:56:18.388Z,99582.38
2023-05-09T23:58:45.378Z,99584.55
